Time;durP1;ratioP1;P1;durP2;ratioP2;P2;SDS_P1;SDS_P2;PMS_P1;PMS_P2;Temp;Humidity;BMP_temperature;BMP_pressure;BME280_temperature;BME280_humidity;BME280_pressure;Samples;Min_cycle;Max_cycle;Signal;HPM_P1;HPM_P2
2023/05/11 00:01:50;;;;;;;5.47;0.93;;;17.10;48.80;;;;;;5964102;29;20043;-75
2023/05/11 00:04:57;;;;;;;4.65;1.05;;;17.10;48.90;;;;;;5962475;29;20572;-75
2023/05/11 00:08:05;;;;;;;0.70;0.60;;;17.10;49.10;;;;;;5963357;29;20027;-74
2023/05/11 00:11:11;;;;;;;4.90;1.27;;;17.10;49.30;;;;;;5961463;29;20121;-73
2023/05/11 00:14:23;;;;;;;2.67;0.73;;;17.10;49.40;;;;;;5961955;29;20039;-74
2023/05/11 00:17:28;;;;;;;4.68;0.70;;;17.10;49.50;;;;;;5962593;29;20031;-75
2023/05/11 00:20:37;;;;;;;3.65;1.15;;;17.10;49.60;;;;;;5962834;29;20169;-74
2023/05/11 00:23:45;;;;;;;3.75;1.00;;;17.00;50.20;;;;;;5963461;29;20030;-74
2023/05/11 00:26:55;;;;;;;1.05;0.70;;;17.00;49.80;;;;;;5965486;29;20031;-74
2023/05/11 00:30:10;;;;;;;3.90;0.82;;;17.00;49.90;;;;;;5964861;29;20039;-74
2023/05/11 00:33:24;;;;;;;2.50;0.80;;;17.00;50.00;;;;;;5964456;29;20061;-76
2023/05/11 00:36:34;;;;;;;2.15;0.77;;;17.10;50.00;;;;;;5963264;29;20039;-74
2023/05/11 00:39:40;;;;;;;1.20;0.77;;;17.10;49.90;;;;;;5963100;29;20035;-74
2023/05/11 00:42:46;;;;;;;2.95;0.90;;;17.20;49.80;;;;;;5961185;29;20030;-74
2023/05/11 00:45:54;;;;;;;3.67;0.80;;;17.20;49.60;;;;;;5997720;29;20030;-74
2023/05/11 00:49:04;;;;;;;3.72;1.02;;;17.20;49.50;;;;;;5995844;29;20041;-75
2023/05/11 00:52:14;;;;;;;4.65;0.80;;;17.20;49.50;;;;;;5976581;29;20126;-76
2023/05/11 00:55:22;;;;;;;2.70;0.80;;;17.20;49.40;;;;;;5963209;29;20050;-75
2023/05/11 00:58:29;;;;;;;3.03;1.00;;;17.20;49.40;;;;;;5961151;29;20098;-76
2023/05/11 01:01:40;;;;;;;3.38;0.82;;;17.20;49.40;;;;;;5960974;29;20041;-77
2023/05/11 01:04:47;;;;;;;0.40;0.40;;;17.20;49.50;;;;;;5962517;29;20091;-75
2023/05/11 01:08:36;;;;;;;0.50;0.45;;;17.20;49.60;;;;;;5960396;29;20035;-77
2023/05/11 01:11:58;;;;;;;5.53;1.30;;;17.20;49.70;;;;;;5935821;30;20126;-74
2023/05/11 01:15:24;;;;;;;3.42;0.75;;;17.20;49.60;;;;;;5951713;29;20050;-75
2023/05/11 01:18:45;;;;;;;3.03;0.68;;;17.20;49.50;;;;;;5936412;30;20047;-75
2023/05/11 01:21:53;;;;;;;4.20;0.93;;;17.30;49.40;;;;;;5921110;30;20046;-74
2023/05/11 01:25:08;;;;;;;0.85;0.75;;;17.30;49.30;;;;;;5936623;30;20119;-76
2023/05/11 01:28:35;;;;;;;4.10;0.98;;;17.30;49.20;;;;;;5951139;29;20149;-73
2023/05/11 01:31:48;;;;;;;2.08;0.70;;;17.40;49.30;;;;;;5935835;30;20043;-76
2023/05/11 01:35:13;;;;;;;1.27;0.50;;;17.40;49.10;;;;;;5921550;30;20137;-74
2023/05/11 01:38:21;;;;;;;4.78;0.95;;;17.40;48.80;;;;;;5921142;30;20050;-74
2023/05/11 01:41:35;;;;;;;3.35;0.70;;;17.50;48.70;;;;;;5945410;29;20050;-75
2023/05/11 01:44:48;;;;;;;0.63;0.57;;;17.50;48.80;;;;;;5942973;29;20130;-74
2023/05/11 01:47:58;;;;;;;3.53;1.08;;;17.50;48.90;;;;;;5963874;29;20038;-75
2023/05/11 01:51:15;;;;;;;3.78;1.05;;;17.60;48.90;;;;;;5982080;29;20030;-76
2023/05/11 01:54:28;;;;;;;3.58;0.93;;;17.50;49.10;;;;;;5983782;29;20038;-75
2023/05/11 01:57:39;;;;;;;8.63;0.77;;;17.40;49.30;;;;;;5982350;29;20039;-75
2023/05/11 02:00:51;;;;;;;1.27;0.65;;;17.40;49.40;;;;;;5983845;29;20035;-74
2023/05/11 02:04:05;;;;;;;2.75;0.77;;;17.40;49.70;;;;;;5982498;29;20062;-74
2023/05/11 02:07:13;;;;;;;1.80;0.93;;;17.30;49.90;;;;;;5983931;29;20114;-74
2023/05/11 02:10:25;;;;;;;2.08;0.80;;;17.30;50.10;;;;;;5983722;29;20039;-75
2023/05/11 02:13:38;;;;;;;2.40;0.55;;;17.30;50.30;;;;;;5997380;29;20041;-74
2023/05/11 02:16:50;;;;;;;2.15;0.70;;;17.20;50.40;;;;;;5983986;29;20038;-74
2023/05/11 02:20:07;;;;;;;0.75;0.45;;;17.20;50.50;;;;;;5983081;29;20042;-75
2023/05/11 02:23:16;;;;;;;5.30;0.80;;;17.20;50.60;;;;;;5982019;29;20109;-74
2023/05/11 02:26:23;;;;;;;1.50;0.50;;;17.20;50.40;;;;;;5983127;29;20047;-77
2023/05/11 02:29:31;;;;;;;4.30;1.00;;;17.10;50.30;;;;;;5982644;29;20116;-74
2023/05/11 02:32:44;;;;;;;5.63;1.02;;;17.10;51.00;;;;;;5981674;29;20030;-76
2023/05/11 02:35:54;;;;;;;2.45;0.73;;;17.10;50.40;;;;;;5967330;29;20130;-75
2023/05/11 02:39:12;;;;;;;1.23;0.70;;;17.10;50.40;;;;;;5982094;29;20061;-74
2023/05/11 02:42:24;;;;;;;2.75;1.00;;;17.10;50.40;;;;;;5966807;29;20090;-75
2023/05/11 02:45:36;;;;;;;0.85;0.63;;;17.30;50.60;;;;;;5983375;29;20478;-74
2023/05/11 02:48:50;;;;;;;1.65;0.60;;;17.10;50.80;;;;;;5996458;29;20098;-76
2023/05/11 02:52:02;;;;;;;3.70;0.70;;;17.10;51.00;;;;;;5981289;29;20050;-75
2023/05/11 02:55:15;;;;;;;4.25;0.77;;;17.10;51.40;;;;;;5981541;29;20027;-77
2023/05/11 02:58:25;;;;;;;3.05;0.90;;;17.10;51.60;;;;;;5980996;29;20033;-74
2023/05/11 03:01:39;;;;;;;1.55;0.82;;;17.10;51.90;;;;;;5982708;29;20042;-75
2023/05/11 03:04:51;;;;;;;2.83;0.85;;;17.00;51.80;;;;;;5982634;29;20488;-76
2023/05/11 03:08:02;;;;;;;3.40;0.70;;;17.00;51.90;;;;;;5982405;29;20026;-74
2023/05/11 03:11:17;;;;;;;1.27;0.63;;;17.00;51.90;;;;;;5980732;29;20038;-75
2023/05/11 03:14:25;;;;;;;0.95;0.70;;;17.00;51.90;;;;;;5965993;29;20404;-75
2023/05/11 03:17:35;;;;;;;4.70;1.00;;;17.00;51.80;;;;;;5981019;29;20079;-76
2023/05/11 03:20:43;;;;;;;2.47;0.85;;;17.00;51.70;;;;;;5996586;29;20046;-74
2023/05/11 03:23:53;;;;;;;2.83;0.70;;;17.00;51.70;;;;;;5982630;29;20039;-75
2023/05/11 03:27:02;;;;;;;;;;;17.00;51.80;;;;;;5981653;29;20053;-75
2023/05/11 03:30:14;;;;;;;1.58;0.80;;;17.00;51.80;;;;;;5995308;29;19916;-74
2023/05/11 03:33:28;;;;;;;4.78;1.13;;;17.00;51.80;;;;;;5981051;29;20045;-74
2023/05/11 03:36:35;;;;;;;2.15;0.93;;;17.00;52.00;;;;;;5982487;29;20125;-75
2023/05/11 03:39:45;;;;;;;4.13;0.82;;;17.00;52.00;;;;;;5981737;29;20419;-74
2023/05/11 03:42:56;;;;;;;6.65;1.00;;;17.00;52.00;;;;;;5985185;29;20157;-74
2023/05/11 03:46:09;;;;;;;0.70;0.70;;;16.90;52.00;;;;;;5989365;29;20083;-74
2023/05/11 03:49:23;;;;;;;4.45;1.20;;;17.00;52.10;;;;;;5986152;29;20087;-74
2023/05/11 03:52:36;;;;;;;2.30;0.88;;;17.00;52.20;;;;;;5982729;29;20035;-74
2023/05/11 03:55:51;;;;;;;4.32;1.17;;;17.00;52.10;;;;;;5982499;29;20579;-75
2023/05/11 03:59:00;;;;;;;5.57;1.05;;;17.10;52.20;;;;;;5981781;29;20122;-74
2023/05/11 04:02:08;;;;;;;1.65;0.77;;;17.00;52.20;;;;;;5982044;29;20110;-74
2023/05/11 04:05:17;;;;;;;3.60;1.27;;;17.00;52.20;;;;;;5980704;29;20110;-74
2023/05/11 04:08:25;;;;;;;3.55;0.98;;;17.00;52.20;;;;;;5980230;29;20046;-75
2023/05/11 04:11:37;;;;;;;3.58;0.90;;;17.00;52.20;;;;;;5980490;29;20122;-73
2023/05/11 04:14:45;;;;;;;7.72;1.05;;;17.00;52.20;;;;;;5979900;29;20038;-74
2023/05/11 04:17:54;;;;;;;5.43;1.20;;;17.00;52.20;;;;;;5982089;29;20046;-75
2023/05/11 04:21:07;;;;;;;2.25;1.08;;;17.00;52.10;;;;;;5982168;29;20049;-75
2023/05/11 04:24:15;;;;;;;8.50;1.38;;;17.00;52.10;;;;;;5984254;29;20487;-75
2023/05/11 04:27:28;;;;;;;8.00;1.10;;;17.00;52.20;;;;;;5999197;29;20073;-74
2023/05/11 04:30:35;;;;;;;0.85;0.80;;;17.00;52.20;;;;;;5984056;29;20051;-76
2023/05/11 04:33:42;;;;;;;3.65;1.25;;;17.00;52.30;;;;;;5976955;29;20638;-75
2023/05/11 04:36:50;;;;;;;1.65;0.90;;;17.00;52.30;;;;;;5962860;29;20058;-77
2023/05/11 04:40:06;;;;;;;4.63;1.00;;;17.00;52.40;;;;;;5962650;29;20038;-76
2023/05/11 04:43:21;;;;;;;6.43;1.17;;;17.00;52.40;;;;;;5961710;29;20035;-75
2023/05/11 04:46:30;;;;;;;2.47;0.90;;;17.00;52.40;;;;;;5961407;29;20039;-75
2023/05/11 04:49:36;;;;;;;10.38;1.20;;;17.00;52.40;;;;;;5961237;29;20046;-77
2023/05/11 04:52:40;;;;;;;2.65;1.00;;;17.00;52.40;;;;;;5986862;29;20038;-74
2023/05/11 04:55:50;;;;;;;5.70;1.17;;;17.10;52.40;;;;;;5991663;29;20087;-75
2023/05/11 04:58:55;;;;;;;5.85;1.00;;;17.10;52.30;;;;;;5985223;29;20042;-75
2023/05/11 05:02:08;;;;;;;4.15;1.00;;;17.10;52.10;;;;;;5983441;29;20076;-77
2023/05/11 05:05:26;;;;;;;3.60;1.00;;;17.10;52.20;;;;;;5983167;29;20038;-74
2023/05/11 05:08:34;;;;;;;4.05;1.13;;;17.10;52.30;;;;;;5982637;29;20151;-75
2023/05/11 05:11:40;;;;;;;4.95;1.08;;;17.10;52.40;;;;;;5983836;29;20036;-75
2023/05/11 05:14:49;;;;;;;3.80;1.15;;;17.20;52.50;;;;;;5984338;29;20128;-77
2023/05/11 05:18:05;;;;;;;4.55;1.10;;;17.20;52.60;;;;;;5983861;29;20034;-75
2023/05/11 05:21:12;;;;;;;2.17;1.00;;;17.20;52.60;;;;;;5981432;29;20129;-75
2023/05/11 05:24:19;;;;;;;3.33;1.17;;;17.30;52.50;;;;;;5984624;29;20043;-75
2023/05/11 05:27:28;;;;;;;3.72;1.08;;;17.30;52.50;;;;;;5981291;29;20066;-76
2023/05/11 05:30:38;;;;;;;3.95;1.25;;;17.30;52.40;;;;;;5982607;29;20030;-74
2023/05/11 05:33:49;;;;;;;2.80;0.90;;;17.40;52.30;;;;;;5976250;29;20058;-76
2023/05/11 05:37:02;;;;;;;4.78;1.00;;;17.40;52.20;;;;;;5960489;29;20042;-74
2023/05/11 05:40:12;;;;;;;3.33;0.90;;;17.50;52.10;;;;;;5964872;29;20034;-76
2023/05/11 05:43:29;;;;;;;1.92;1.08;;;17.50;52.00;;;;;;5983949;29;20034;-76
2023/05/11 05:46:38;;;;;;;2.45;1.00;;;17.50;51.80;;;;;;5983925;29;20164;-77
2023/05/11 05:49:48;;;;;;;5.50;1.80;;;17.60;51.80;;;;;;5983688;29;20034;-76
2023/05/11 05:53:00;;;;;;;0.88;0.80;;;17.60;51.80;;;;;;5998860;29;20056;-76
2023/05/11 05:56:13;;;;;;;3.40;1.38;;;17.70;51.70;;;;;;5987349;29;20035;-75
2023/05/11 05:59:22;;;;;;;2.25;0.98;;;17.70;51.60;;;;;;5982298;29;20042;-75
2023/05/11 06:02:36;;;;;;;2.58;1.20;;;17.80;51.50;;;;;;5983334;29;20101;-74
2023/05/11 06:05:46;;;;;;;1.38;1.10;;;17.90;51.40;;;;;;5983290;29;20030;-75
2023/05/11 06:09:00;;;;;;;4.75;1.15;;;17.90;51.30;;;;;;5996771;29;20058;-77
2023/05/11 06:12:12;;;;;;;4.00;0.95;;;18.00;51.00;;;;;;5983855;29;20030;-75
2023/05/11 06:15:26;;;;;;;7.75;1.30;;;18.00;50.80;;;;;;5982171;29;20093;-75
2023/05/11 06:18:47;;;;;;;7.22;1.45;;;18.10;50.70;;;;;;5983306;29;20106;-76
2023/05/11 06:22:02;;;;;;;8.85;1.00;;;18.10;50.50;;;;;;5981802;29;20070;-76
2023/05/11 06:25:15;;;;;;;2.42;1.23;;;18.20;50.40;;;;;;5981361;29;20062;-75
2023/05/11 06:28:30;;;;;;;6.10;0.93;;;18.30;50.20;;;;;;5982828;29;20067;-74
2023/05/11 06:31:41;;;;;;;6.82;1.40;;;18.30;50.00;;;;;;5982260;29;20741;-77
2023/05/11 06:34:50;;;;;;;4.75;1.20;;;18.40;49.90;;;;;;5988450;29;20523;-75
2023/05/11 06:38:08;;;;;;;7.70;1.50;;;18.40;49.70;;;;;;5989707;29;20045;-75
2023/05/11 06:41:16;;;;;;;3.95;1.00;;;18.30;49.70;;;;;;5986778;29;20042;-75
2023/05/11 06:44:24;;;;;;;3.70;0.77;;;18.30;49.80;;;;;;5983266;29;20106;-76
2023/05/11 06:47:41;;;;;;;7.15;1.23;;;18.20;49.80;;;;;;5996270;29;20034;-75
2023/05/11 06:50:51;;;;;;;5.65;1.13;;;18.20;49.90;;;;;;5983155;29;20082;-76
2023/05/11 06:54:00;;;;;;;5.60;1.00;;;18.20;49.90;;;;;;6004602;29;20082;-75
2023/05/11 06:57:11;;;;;;;5.22;1.10;;;18.20;49.80;;;;;;6003707;29;20050;-76
2023/05/11 07:00:19;;;;;;;3.97;1.20;;;18.30;49.80;;;;;;6005261;29;20114;-75
2023/05/11 07:03:27;;;;;;;2.13;0.70;;;18.30;49.70;;;;;;6005458;29;20069;-76
2023/05/11 07:06:35;;;;;;;1.48;0.95;;;18.40;49.70;;;;;;6003526;29;20034;-75
2023/05/11 07:09:39;;;;;;;3.17;1.20;;;18.40;49.60;;;;;;6002749;29;20121;-76
2023/05/11 07:12:47;;;;;;;4.25;1.02;;;18.60;49.60;;;;;;6006234;29;20140;-76
2023/05/11 07:15:55;;;;;;;;;;;18.60;49.30;;;;;;6005816;29;20037;-76
2023/05/11 07:19:02;;;;;;;4.95;1.20;;;18.80;48.90;;;;;;5982591;29;19917;-77
2023/05/11 07:22:13;;;;;;;5.85;1.20;;;18.80;48.70;;;;;;5960080;29;20094;-76
2023/05/11 07:25:21;;;;;;;4.32;1.17;;;18.90;48.70;;;;;;5959865;29;20214;-77
2023/05/11 07:28:29;;;;;;;2.22;1.25;;;19.00;48.60;;;;;;5959865;29;20120;-75
2023/05/11 07:31:36;;;;;;;11.90;1.15;;;19.10;48.30;;;;;;5974206;29;20255;-75
2023/05/11 07:34:45;;;;;;;4.15;0.90;;;19.20;48.10;;;;;;5973302;29;20035;-76
2023/05/11 07:37:51;;;;;;;2.47;1.15;;;19.30;47.90;;;;;;5959857;29;20087;-75
2023/05/11 07:40:59;;;;;;;2.53;0.85;;;19.40;47.80;;;;;;5958897;29;20046;-77
2023/05/11 07:44:15;;;;;;;1.95;0.90;;;19.60;47.50;;;;;;5958671;29;20037;-75
2023/05/11 07:47:24;;;;;;;3.50;1.15;;;19.70;47.20;;;;;;5959588;29;20034;-75
2023/05/11 07:50:35;;;;;;;5.93;0.98;;;19.60;47.10;;;;;;5961693;29;20043;-74
2023/05/11 07:53:43;;;;;;;3.45;0.93;;;19.50;47.30;;;;;;5960383;29;20038;-76
2023/05/11 07:56:54;;;;;;;1.83;0.90;;;19.40;47.40;;;;;;5986292;29;20026;-76
2023/05/11 08:00:06;;;;;;;3.03;0.88;;;19.30;47.60;;;;;;5988078;29;20038;-76
2023/05/11 08:03:21;;;;;;;3.78;0.90;;;19.30;47.70;;;;;;5986529;29;20053;-75
2023/05/11 08:06:31;;;;;;;1.27;0.88;;;19.20;47.80;;;;;;5988302;29;20034;-76
2023/05/11 08:09:43;;;;;;;3.08;0.82;;;19.30;47.80;;;;;;5986836;29;20367;-74
2023/05/11 08:12:55;;;;;;;1.55;0.70;;;19.40;47.70;;;;;;5985125;29;20125;-75
2023/05/11 08:16:06;;;;;;;1.63;0.70;;;19.40;47.70;;;;;;5987083;29;20042;-76
2023/05/11 08:19:20;;;;;;;3.33;0.77;;;19.40;47.70;;;;;;5986294;29;20034;-76
2023/05/11 08:22:24;;;;;;;2.92;1.10;;;19.50;47.60;;;;;;5988136;29;20030;-75
2023/05/11 08:25:32;;;;;;;3.83;1.00;;;19.60;47.60;;;;;;5989016;29;20110;-76
2023/05/11 08:28:43;;;;;;;1.95;0.90;;;19.70;47.60;;;;;;5989305;29;20038;-76
2023/05/11 08:31:57;;;;;;;3.70;0.88;;;19.80;47.40;;;;;;5986369;29;20034;-75
2023/05/11 08:35:15;;;;;;;1.48;0.93;;;20.00;47.20;;;;;;5986459;29;20037;-75
2023/05/11 08:38:22;;;;;;;4.25;0.73;;;20.20;47.00;;;;;;5985494;29;20030;-75
2023/05/11 08:41:28;;;;;;;3.03;0.80;;;20.40;46.60;;;;;;5984610;29;20125;-75
2023/05/11 08:44:37;;;;;;;3.17;1.02;;;20.70;46.10;;;;;;5984198;29;20046;-75
2023/05/11 08:47:47;;;;;;;3.70;0.93;;;20.90;45.50;;;;;;5985703;29;20057;-75
2023/05/11 08:51:00;;;;;;;5.93;0.70;;;21.10;45.30;;;;;;5985107;29;20034;-75
2023/05/11 08:54:12;;;;;;;2.72;1.00;;;21.20;44.80;;;;;;5986648;29;20042;-75
2023/05/11 08:57:25;;;;;;;5.10;0.95;;;21.10;44.60;;;;;;5984607;29;20178;-75
2023/05/11 09:00:36;;;;;;;1.92;0.63;;;21.00;44.70;;;;;;5986558;29;20038;-73
2023/05/11 09:03:41;;;;;;;;;;;21.00;44.70;;;;;;5987049;29;20083;-74
2023/05/11 09:06:52;;;;;;;1.58;0.55;;;21.10;44.50;;;;;;5998433;29;19916;-75
2023/05/11 09:10:01;;;;;;;2.53;0.70;;;21.20;44.30;;;;;;5984200;29;20076;-76
2023/05/11 09:13:15;;;;;;;3.22;0.80;;;21.30;44.10;;;;;;5983340;29;20231;-76
2023/05/11 09:16:22;;;;;;;1.77;0.80;;;21.30;44.10;;;;;;5985734;29;20045;-74
2023/05/11 09:19:29;;;;;;;1.90;0.63;;;21.40;43.80;;;;;;5984482;29;20037;-76
2023/05/11 09:22:50;;;;;;;1.42;0.70;;;21.50;43.60;;;;;;5985073;29;20125;-77
2023/05/11 09:26:01;;;;;;;4.72;0.95;;;21.60;43.40;;;;;;5985972;29;20027;-77
2023/05/11 09:29:10;;;;;;;5.00;0.85;;;21.60;43.00;;;;;;5986782;29;20046;-75
2023/05/11 09:32:22;;;;;;;4.32;0.73;;;21.60;42.90;;;;;;5984270;29;20037;-76
2023/05/11 09:35:36;;;;;;;5.00;1.02;;;21.50;42.90;;;;;;5985150;29;20035;-76
2023/05/11 09:38:47;;;;;;;3.00;0.60;;;21.50;42.90;;;;;;5984874;29;20030;-75
2023/05/11 09:42:12;;;;;;;2.38;0.73;;;21.50;42.90;;;;;;5985897;29;20038;-76
2023/05/11 09:45:42;;;;;;;0.98;0.50;;;21.50;42.80;;;;;;5985367;29;20066;-74
2023/05/11 09:49:00;;;;;;;3.13;0.77;;;21.40;42.60;;;;;;5984147;29;20046;-76
2023/05/11 09:52:09;;;;;;;5.88;0.90;;;21.30;42.40;;;;;;5993167;29;20070;-78
2023/05/11 09:55:17;;;;;;;2.30;0.80;;;21.20;42.70;;;;;;6009264;29;20035;-76
2023/05/11 09:58:28;;;;;;;1.92;0.75;;;21.30;42.80;;;;;;5983991;29;20049;-75
2023/05/11 10:01:36;;;;;;;6.63;0.80;;;21.50;42.60;;;;;;5984526;29;20034;-76
2023/05/11 10:04:44;;;;;;;1.70;0.70;;;21.50;42.50;;;;;;5983170;29;20547;-76
2023/05/11 10:08:07;;;;;;;3.10;0.88;;;21.60;42.30;;;;;;5984583;29;20040;-76
2023/05/11 10:11:22;;;;;;;1.00;0.70;;;21.70;42.10;;;;;;5972044;29;20048;-75
2023/05/11 10:14:30;;;;;;;0.85;0.50;;;21.80;42.00;;;;;;5975063;29;20054;-77
2023/05/11 10:17:43;;;;;;;2.20;0.70;;;21.90;41.90;;;;;;5961449;29;20066;-75
2023/05/11 10:20:56;;;;;;;3.72;0.80;;;22.00;41.70;;;;;;5959145;29;20055;-75
2023/05/11 10:24:14;;;;;;;3.03;1.25;;;22.00;41.20;;;;;;5961876;29;20023;-76
2023/05/11 10:27:25;;;;;;;1.17;0.63;;;22.00;41.00;;;;;;5960457;29;20031;-75
2023/05/11 10:30:34;;;;;;;2.10;0.70;;;22.00;40.90;;;;;;5960914;29;20120;-75
2023/05/11 10:33:41;;;;;;;3.33;0.95;;;21.90;40.80;;;;;;5944112;29;20031;-75
2023/05/11 10:36:52;;;;;;;2.42;0.80;;;21.80;41.00;;;;;;5960288;29;20046;-75
2023/05/11 10:40:06;;;;;;;2.20;1.00;;;21.70;41.00;;;;;;5944917;29;20068;-76
2023/05/11 10:43:24;;;;;;;2.97;0.80;;;21.60;41.10;;;;;;5959275;29;20075;-78
2023/05/11 10:46:38;;;;;;;1.83;0.95;;;21.70;41.30;;;;;;5959398;29;20127;-76
2023/05/11 10:49:51;;;;;;;3.47;0.93;;;21.80;40.90;;;;;;5961105;29;20027;-75
2023/05/11 10:53:24;;;;;;;2.22;0.60;;;21.70;40.30;;;;;;5990160;29;20045;-76
2023/05/11 10:56:50;;;;;;;3.78;0.80;;;21.70;39.90;;;;;;6004869;29;20044;-75
2023/05/11 11:00:30;;;;;;;2.25;0.88;;;21.80;40.00;;;;;;6005973;29;20142;-76
2023/05/11 11:03:35;;;;;;;0.60;0.47;;;21.90;39.80;;;;;;5995477;29;20030;-75
2023/05/11 11:06:50;;;;;;;1.58;0.63;;;22.10;39.20;;;;;;5978589;29;20034;-76
2023/05/11 11:10:13;;;;;;;1.90;0.70;;;22.20;39.10;;;;;;5958551;29;20126;-73
2023/05/11 11:13:28;;;;;;;2.85;0.88;;;22.30;39.30;;;;;;5960102;29;20147;-75
2023/05/11 11:16:38;;;;;;;2.03;0.95;;;22.60;39.00;;;;;;5961987;29;20105;-76
2023/05/11 11:19:45;;;;;;;3.72;0.52;;;22.90;38.20;;;;;;5977239;29;20061;-75
2023/05/11 11:22:55;;;;;;;0.60;0.60;;;23.00;38.30;;;;;;5961028;29;20057;-75
2023/05/11 11:26:20;;;;;;;0.68;0.40;;;22.80;38.10;;;;;;5960088;29;20091;-75
2023/05/11 11:29:28;;;;;;;;;;;22.70;38.00;;;;;;5958122;29;20051;-76
2023/05/11 11:32:36;;;;;;;0.70;0.50;;;22.50;38.20;;;;;;5959863;29;19913;-76
2023/05/11 11:35:51;;;;;;;1.48;0.70;;;22.50;37.30;;;;;;5958788;29;20053;-75
2023/05/11 11:39:01;;;;;;;2.85;1.30;;;22.80;36.90;;;;;;5972757;29;20075;-75
2023/05/11 11:42:40;;;;;;;2.60;0.80;;;22.80;36.80;;;;;;5960869;29;20419;-75
2023/05/11 11:46:03;;;;;;;0.40;0.22;;;23.50;36.10;;;;;;5974166;29;20584;-76
2023/05/11 11:49:13;;;;;;;1.33;0.50;;;24.30;34.80;;;;;;5959842;29;20086;-76
2023/05/11 11:52:33;;;;;;;3.72;0.60;;;25.10;33.70;;;;;;5960170;29;20479;-75
2023/05/11 11:55:55;;;;;;;2.33;0.50;;;25.80;32.90;;;;;;5975999;29;20030;-75
2023/05/11 11:59:16;;;;;;;4.85;0.90;;;25.90;32.40;;;;;;5980878;29;20054;-76
2023/05/11 12:02:27;;;;;;;6.00;0.77;;;25.60;32.60;;;;;;5981962;29;20082;-75
2023/05/11 12:05:37;;;;;;;2.13;0.73;;;25.20;33.20;;;;;;5958549;29;20110;-76
2023/05/11 12:08:51;;;;;;;0.75;0.65;;;24.70;34.20;;;;;;5959655;29;20027;-76
2023/05/11 12:12:09;;;;;;;3.20;0.60;;;24.20;35.10;;;;;;5959407;29;20392;-75
2023/05/11 12:15:31;;;;;;;1.95;0.60;;;23.80;36.50;;;;;;5979123;29;20030;-74
2023/05/11 12:18:43;;;;;;;0.75;0.40;;;23.50;37.90;;;;;;5972972;29;20039;-76
2023/05/11 12:21:50;;;;;;;0.52;0.40;;;23.30;38.60;;;;;;5973386;29;20070;-76
2023/05/11 12:25:07;;;;;;;1.63;0.50;;;23.10;38.40;;;;;;5959236;29;20166;-74
2023/05/11 12:28:21;;;;;;;1.70;0.50;;;23.30;37.50;;;;;;5959086;29;20027;-75
2023/05/11 12:31:36;;;;;;;1.10;0.30;;;24.20;35.60;;;;;;5959601;29;20043;-76
2023/05/11 12:34:57;;;;;;;2.47;0.38;;;24.90;34.10;;;;;;5980028;29;20042;-74
2023/05/11 12:38:14;;;;;;;0.32;0.32;;;25.70;32.70;;;;;;5981227;29;20638;-76
2023/05/11 12:41:26;;;;;;;1.73;0.40;;;26.40;31.00;;;;;;5981450;29;20039;-76
2023/05/11 12:44:36;;;;;;;1.70;0.80;;;27.00;30.20;;;;;;5985803;29;20042;-75
2023/05/11 12:47:43;;;;;;;2.57;0.73;;;27.00;29.70;;;;;;5983988;29;20558;-74
2023/05/11 12:50:52;;;;;;;0.30;0.25;;;26.40;29.90;;;;;;5983112;29;20080;-76
2023/05/11 12:54:11;;;;;;;6.80;0.50;;;25.70;30.40;;;;;;5963698;29;20030;-76
2023/05/11 12:57:28;;;;;;;1.63;0.60;;;24.90;32.10;;;;;;5983813;29;20035;-75
2023/05/11 13:00:50;;;;;;;0.45;0.30;;;24.50;34.00;;;;;;5984375;29;20030;-74
2023/05/11 13:03:55;;;;;;;3.58;0.45;;;24.20;34.80;;;;;;5984759;29;20045;-76
2023/05/11 13:07:08;;;;;;;2.80;0.30;;;23.90;35.10;;;;;;5984685;29;20030;-76
2023/05/11 13:10:29;;;;;;;1.10;0.35;;;23.70;34.50;;;;;;5985860;29;20149;-74
2023/05/11 13:13:37;;;;;;;0.38;0.30;;;23.60;34.80;;;;;;5987406;29;20034;-75
2023/05/11 13:16:58;;;;;;;0.90;0.30;;;24.20;34.30;;;;;;5988959;29;20031;-76
2023/05/11 13:20:25;;;;;;;0.85;0.50;;;24.90;33.60;;;;;;5986580;29;20117;-75
2023/05/11 13:23:36;;;;;;;0.85;0.50;;;24.80;32.60;;;;;;5998347;29;20077;-74
2023/05/11 13:26:46;;;;;;;0.43;0.20;;;24.70;32.80;;;;;;5984816;29;20038;-75
2023/05/11 13:29:54;;;;;;;0.90;0.60;;;25.90;31.80;;;;;;5986010;29;20046;-75
2023/05/11 13:33:03;;;;;;;0.60;0.40;;;28.10;29.60;;;;;;5986248;29;20038;-75
2023/05/11 13:36:16;;;;;;;5.07;0.50;;;29.20;27.90;;;;;;5984544;29;20038;-76
2023/05/11 13:39:24;;;;;;;0.80;0.60;;;28.60;28.00;;;;;;5985328;29;20039;-74
2023/05/11 13:42:31;;;;;;;;;;;28.10;28.40;;;;;;5984301;29;20149;-75
2023/05/11 13:45:40;;;;;;;0.40;0.30;;;27.70;28.90;;;;;;5983325;29;19924;-75
2023/05/11 13:48:47;;;;;;;0.95;0.38;;;27.30;29.30;;;;;;5968259;29;20184;-76
2023/05/11 13:51:59;;;;;;;4.53;0.50;;;26.90;29.80;;;;;;5985748;29;20204;-77
2023/05/11 13:55:16;;;;;;;0.65;0.50;;;26.30;30.00;;;;;;5975129;29;20043;-76
2023/05/11 13:58:25;;;;;;;0.22;0.22;;;25.80;30.30;;;;;;5959443;29;20035;-75
2023/05/11 14:01:35;;;;;;;7.45;0.50;;;25.10;30.80;;;;;;5960453;29;20039;-76
2023/05/11 14:04:45;;;;;;;0.60;0.30;;;24.60;31.90;;;;;;5959412;29;20039;-76
2023/05/11 14:07:58;;;;;;;1.17;0.28;;;24.00;32.80;;;;;;5944685;29;20037;-75
2023/05/11 14:11:10;;;;;;;0.77;0.20;;;23.60;33.90;;;;;;5960735;29;20470;-74
2023/05/11 14:14:17;;;;;;;6.95;0.38;;;23.40;34.30;;;;;;5959962;29;20157;-75
2023/05/11 14:17:29;;;;;;;0.40;0.30;;;23.20;34.50;;;;;;5961065;29;20045;-75
2023/05/11 14:20:37;;;;;;;5.63;0.47;;;23.60;34.60;;;;;;5961073;29;20045;-75
2023/05/11 14:23:55;;;;;;;3.72;0.43;;;24.50;32.90;;;;;;5961723;29;20445;-75
2023/05/11 14:27:02;;;;;;;0.85;0.22;;;24.40;33.20;;;;;;5960861;29;20103;-72
2023/05/11 14:30:17;;;;;;;2.35;0.50;;;24.00;34.60;;;;;;5959350;29;20039;-75
2023/05/11 14:33:27;;;;;;;0.63;0.28;;;23.50;35.90;;;;;;5959265;29;20395;-74
2023/05/11 14:36:34;;;;;;;0.40;0.20;;;23.20;37.20;;;;;;5959386;29;20030;-74
2023/05/11 14:39:49;;;;;;;0.38;0.32;;;22.80;38.10;;;;;;5959269;29;20057;-73
2023/05/11 14:43:03;;;;;;;0.60;0.38;;;22.50;39.60;;;;;;5959336;29;20042;-74
2023/05/11 14:46:16;;;;;;;1.38;0.45;;;22.20;40.70;;;;;;5959373;29;20065;-74
2023/05/11 14:49:24;;;;;;;5.13;0.50;;;21.90;41.70;;;;;;5974794;29;20220;-74
2023/05/11 14:52:30;;;;;;;0.55;0.40;;;21.60;42.40;;;;;;5994591;29;20074;-75
2023/05/11 14:55:38;;;;;;;8.77;0.68;;;21.40;42.40;;;;;;5982100;29;20105;-75
2023/05/11 14:58:47;;;;;;;0.77;0.40;;;21.50;42.40;;;;;;5959324;29;20053;-75
2023/05/11 15:01:57;;;;;;;4.85;0.40;;;21.90;41.70;;;;;;5958945;29;20107;-74
2023/05/11 15:05:10;;;;;;;0.20;0.20;;;22.30;40.70;;;;;;5980861;29;20087;-74
2023/05/11 15:08:21;;;;;;;1.27;0.40;;;22.40;40.10;;;;;;5982504;29;20113;-73
2023/05/11 15:11:24;;;;;;;1.33;0.40;;;22.50;39.90;;;;;;5985522;29;20048;-72
2023/05/11 15:14:35;;;;;;;1.57;0.60;;;22.60;39.70;;;;;;5985510;29;20045;-74
2023/05/11 15:17:41;;;;;;;1.35;0.40;;;22.60;39.70;;;;;;5982526;29;20379;-74
2023/05/11 15:20:54;;;;;;;3.38;0.40;;;22.90;39.50;;;;;;5982694;29;20034;-74
2023/05/11 15:24:17;;;;;;;3.15;0.47;;;24.20;37.90;;;;;;5981035;29;20501;-73
2023/05/11 15:27:25;;;;;;;0.82;0.38;;;26.00;35.10;;;;;;5980861;29;20026;-73
2023/05/11 15:30:35;;;;;;;0.93;0.30;;;27.20;32.80;;;;;;5981071;29;20041;-75
2023/05/11 15:33:46;;;;;;;1.23;0.60;;;26.90;32.60;;;;;;5981537;29;20047;-74
2023/05/11 15:37:03;;;;;;;9.88;0.60;;;25.90;33.60;;;;;;5981696;29;20034;-74
2023/05/11 15:40:21;;;;;;;0.73;0.50;;;24.80;35.40;;;;;;5982264;29;20090;-73
2023/05/11 15:43:30;;;;;;;0.30;0.30;;;23.80;36.90;;;;;;5982539;29;20030;-74
2023/05/11 15:46:39;;;;;;;1.88;0.60;;;23.10;38.30;;;;;;5980224;29;20114;-74
2023/05/11 15:49:46;;;;;;;3.15;0.52;;;22.60;39.50;;;;;;5981207;29;20033;-74
2023/05/11 15:52:59;;;;;;;3.30;0.50;;;22.60;39.80;;;;;;5964804;29;20053;-74
2023/05/11 15:56:14;;;;;;;0.20;0.20;;;22.50;39.60;;;;;;5981851;29;20129;-73
2023/05/11 15:59:24;;;;;;;0.70;0.40;;;22.30;39.70;;;;;;5979603;29;20114;-74
2023/05/11 16:02:34;;;;;;;0.45;0.45;;;22.20;39.80;;;;;;5980502;29;20042;-74
2023/05/11 16:05:40;;;;;;;1.13;0.40;;;22.00;39.90;;;;;;5966201;29;20038;-74
2023/05/11 16:08:49;;;;;;;2.08;0.40;;;21.80;40.40;;;;;;5979573;29;20463;-74
2023/05/11 16:11:57;;;;;;;3.45;0.60;;;21.50;41.60;;;;;;5981515;29;20199;-74
2023/05/11 16:15:16;;;;;;;0.63;0.50;;;21.20;42.60;;;;;;5980599;29;20035;-74
2023/05/11 16:18:25;;;;;;;1.63;0.80;;;20.80;43.60;;;;;;5985592;29;20038;-74
2023/05/11 16:21:33;;;;;;;2.90;0.40;;;20.50;44.70;;;;;;5985974;29;20038;-74
2023/05/11 16:24:37;;;;;;;2.53;0.50;;;20.20;46.00;;;;;;5985236;29;20110;-75
2023/05/11 16:27:47;;;;;;;0.40;0.40;;;19.80;46.80;;;;;;5983665;29;20065;-73
2023/05/11 16:30:54;;;;;;;0.38;0.38;;;19.50;47.80;;;;;;5998496;29;20110;-74
2023/05/11 16:34:02;;;;;;;0.10;0.10;;;19.20;48.40;;;;;;5985024;29;20039;-75
2023/05/11 16:37:12;;;;;;;2.90;0.20;;;19.00;48.80;;;;;;5985120;29;20035;-74
2023/05/11 16:40:19;;;;;;;1.85;0.20;;;18.80;49.00;;;;;;5984701;29;20042;-76